createdAt,value
2018-02-05T00:01:28.398Z,3.06
2018-02-05T00:03:57.629Z,3.16
2018-02-05T00:06:26.726Z,3.15
2018-02-05T00:08:56.819Z,3.08
2018-02-05T00:11:25.919Z,3.09
2018-02-05T00:13:55.009Z,3.19
2018-02-05T00:16:24.120Z,3.02
2018-02-05T00:18:53.220Z,2.95
2018-02-05T00:21:22.354Z,3.00
2018-02-05T00:23:52.204Z,2.96
2018-02-05T00:26:21.317Z,2.91
2018-02-05T00:28:51.926Z,2.86
2018-02-05T00:31:21.009Z,2.93
2018-02-05T00:33:50.138Z,2.93
2018-02-05T00:36:19.409Z,2.86
2018-02-05T00:38:48.510Z,2.81
2018-02-05T00:41:17.670Z,2.80
2018-02-05T00:43:46.770Z,2.83
2018-02-05T00:46:15.894Z,2.76
2018-02-05T00:48:45.012Z,2.91
2018-02-05T00:51:14.125Z,2.90
2018-02-05T00:53:43.249Z,2.92
2018-02-05T00:56:13.148Z,2.90
2018-02-05T00:58:43.762Z,2.85
2018-02-05T01:01:12.862Z,2.84
2018-02-05T01:03:41.958Z,2.88
2018-02-05T01:06:11.054Z,2.83
2018-02-05T01:08:41.049Z,2.81
2018-02-05T01:11:10.158Z,2.83
2018-02-05T01:13:39.240Z,2.81
2018-02-05T01:16:08.351Z,2.83
2018-02-05T01:18:37.454Z,2.92
2018-02-05T01:21:06.550Z,2.93
2018-02-05T01:23:35.666Z,2.98
2018-02-05T01:26:05.545Z,3.13
2018-02-05T01:28:34.658Z,3.29
2018-02-05T01:31:03.767Z,3.46
2018-02-05T01:33:32.868Z,3.40
2018-02-05T01:36:02.747Z,3.38
2018-02-05T01:38:32.585Z,3.25
2018-02-05T01:41:02.492Z,3.25
2018-02-05T01:43:31.592Z,3.21
2018-02-05T01:46:00.704Z,3.23
2018-02-05T01:48:30.554Z,3.22
2018-02-05T01:50:59.667Z,3.38
2018-02-05T01:53:28.763Z,3.54
2018-02-05T01:55:57.878Z,3.58
2018-02-05T01:58:26.966Z,3.54
2018-02-05T02:00:56.057Z,3.59
2018-02-05T02:03:25.167Z,3.67
2018-02-05T02:05:54.310Z,3.68
2018-02-05T02:08:24.161Z,3.70
2018-02-05T02:10:53.252Z,3.72
2018-02-05T02:13:22.346Z,3.86
2018-02-05T02:15:51.437Z,3.88
2018-02-05T02:18:20.547Z,3.86
2018-02-05T02:20:49.662Z,3.80
2018-02-05T02:23:18.771Z,3.70
2018-02-05T02:25:48.617Z,3.73
2018-02-05T02:28:17.717Z,3.61
2018-02-05T02:30:46.818Z,3.56
2018-02-05T02:33:15.916Z,3.61
2018-02-05T02:35:45.029Z,3.58
2018-02-05T02:38:14.135Z,3.68
2018-02-05T02:40:43.833Z,3.70
2018-02-05T02:43:12.940Z,3.77
2018-02-05T02:45:42.071Z,3.69
2018-02-05T02:48:11.913Z,3.69
2018-02-05T02:50:41.024Z,3.69
2018-02-05T02:53:10.128Z,3.64
2018-02-05T02:55:39.214Z,3.63
2018-02-05T02:58:09.101Z,3.64
2018-02-05T03:00:38.961Z,3.62
2018-02-05T03:03:08.069Z,3.62
2018-02-05T03:05:37.186Z,3.62
2018-02-05T03:08:06.275Z,3.62
2018-02-05T03:10:35.391Z,3.55
2018-02-05T03:13:05.261Z,3.59
2018-02-05T03:15:34.393Z,3.53
2018-02-05T03:18:04.247Z,3.50
2018-02-05T03:20:33.334Z,3.56
2018-02-05T03:23:03.445Z,3.55
2018-02-05T03:25:32.554Z,3.59
2018-02-05T03:28:01.676Z,3.58
2018-02-05T03:30:30.802Z,3.49
2018-02-05T03:32:59.902Z,3.46
2018-02-05T03:35:29.792Z,3.47
2018-02-05T03:37:58.926Z,3.47
2018-02-05T03:40:28.780Z,3.37
2018-02-05T03:42:57.894Z,3.30
2018-02-05T03:45:27.007Z,3.23
2018-02-05T03:47:56.097Z,3.28
2018-02-05T03:50:28.047Z,3.29
2018-02-05T03:52:57.293Z,3.29
2018-02-05T03:55:27.141Z,3.26
2018-02-05T03:57:56.252Z,3.32
2018-02-05T04:00:25.350Z,3.24
2018-02-05T04:02:54.457Z,3.31
2018-02-05T04:05:23.569Z,3.29
2018-02-05T04:07:53.434Z,3.25
2018-02-05T04:10:22.552Z,3.31
2018-02-05T04:12:51.654Z,3.19
2018-02-05T04:15:22.254Z,3.24
2018-02-05T04:17:51.548Z,3.25
2018-02-05T04:20:21.016Z,3.28
2018-02-05T04:22:50.114Z,3.20
2018-02-05T04:25:19.978Z,3.23
2018-02-05T04:27:49.099Z,3.30
2018-02-05T04:30:18.178Z,3.18
2018-02-05T04:32:47.302Z,3.12
2018-02-05T04:35:16.408Z,3.19
2018-02-05T04:37:45.514Z,3.17
2018-02-05T04:40:15.374Z,3.14
2018-02-05T04:42:44.487Z,3.18
2018-02-05T04:45:14.333Z,3.24
2018-02-05T04:47:44.221Z,3.21
2018-02-05T04:50:13.326Z,3.25
2018-02-05T04:52:42.480Z,3.21
2018-02-05T04:55:11.553Z,3.20
2018-02-05T04:57:40.685Z,3.25
2018-02-05T05:00:10.544Z,3.16
2018-02-05T05:02:40.406Z,3.14
2018-02-05T05:05:09.517Z,3.04
2018-02-05T05:07:38.619Z,2.99
2018-02-05T05:10:07.744Z,2.99
2018-02-05T05:12:36.833Z,2.94
2018-02-05T05:15:06.702Z,2.86
2018-02-05T05:17:35.809Z,2.97
2018-02-05T05:20:04.903Z,3.00
2018-02-05T05:22:34.002Z,2.94
2018-02-05T05:25:03.100Z,3.08
2018-02-05T05:27:32.229Z,3.08
2018-02-05T05:30:02.089Z,3.06
2018-02-05T05:32:31.290Z,3.17
2018-02-05T05:35:00.948Z,3.21
2018-02-05T05:37:30.893Z,3.24
2018-02-05T05:40:00.785Z,3.16
2018-02-05T05:42:29.888Z,3.11
2018-02-05T05:44:59.777Z,3.17
2018-02-05T05:47:30.285Z,3.17
2018-02-05T05:50:00.165Z,3.15
2018-02-05T05:52:29.260Z,3.01
2018-02-05T05:54:58.395Z,3.13
2018-02-05T05:57:29.029Z,3.13
2018-02-05T05:59:58.125Z,3.19
2018-02-05T06:02:27.225Z,3.17
2018-02-05T06:04:56.345Z,3.08
2018-02-05T06:07:26.204Z,3.16
2018-02-05T06:09:56.302Z,3.18
2018-02-05T06:12:25.929Z,3.17
2018-02-05T06:14:55.027Z,3.27
2018-02-05T06:17:24.148Z,3.19
2018-02-05T06:19:53.243Z,3.10
2018-02-05T06:22:22.363Z,3.04
2018-02-05T06:24:51.443Z,3.13
2018-02-05T06:27:20.566Z,3.18
2018-02-05T06:29:49.658Z,3.18
2018-02-05T06:32:19.532Z,3.14
2018-02-05T06:34:49.401Z,3.08
2018-02-05T06:37:19.297Z,2.96
2018-02-05T06:39:48.415Z,3.08
2018-02-05T06:42:18.302Z,3.17
2018-02-05T06:44:47.403Z,3.16
2018-02-05T06:47:16.497Z,3.08
2018-02-05T06:49:45.614Z,3.19
2018-02-05T07:05:47.785Z,3.42
2018-02-05T07:08:17.856Z,3.28
2018-02-05T07:10:46.981Z,3.21
2018-02-05T07:13:17.830Z,3.23
2018-02-05T07:15:51.006Z,3.18
2018-02-05T07:18:20.091Z,3.13
2018-02-05T07:20:49.185Z,3.16
2018-02-05T07:23:18.302Z,3.14
2018-02-05T07:25:48.171Z,3.10
2018-02-05T07:28:18.512Z,3.05
2018-02-05T07:30:47.581Z,3.07
2018-02-05T07:33:19.344Z,3.08
2018-02-05T07:35:48.424Z,3.11
2018-02-05T07:38:17.541Z,3.16
2018-02-05T07:40:46.638Z,3.23
2018-02-05T07:43:15.733Z,3.08
2018-02-05T07:45:44.874Z,3.13
2018-02-05T07:48:14.718Z,3.07
2018-02-05T07:50:44.605Z,3.11
2018-02-05T07:53:14.477Z,3.10
2018-02-05T07:55:43.574Z,3.11
2018-02-05T07:58:12.700Z,3.11
2018-02-05T08:00:42.551Z,3.14
2018-02-05T08:03:11.655Z,3.18
2018-02-05T08:05:40.757Z,3.28
2018-02-05T08:08:09.873Z,3.23
2018-02-05T08:10:39.726Z,3.33
2018-02-05T08:13:09.597Z,3.28
2018-02-05T08:15:38.710Z,3.27
2018-02-05T08:18:07.815Z,3.19
2018-02-05T08:20:36.929Z,3.23
2018-02-05T08:23:06.781Z,3.28
2018-02-05T08:25:35.906Z,3.29
2018-02-05T08:28:05.013Z,3.30
2018-02-05T08:30:34.125Z,3.31
2018-02-05T08:33:03.976Z,3.29
2018-02-05T08:35:33.093Z,3.28
2018-02-05T08:38:02.956Z,3.25
2018-02-05T08:40:32.808Z,3.26
2018-02-05T08:43:01.905Z,3.24
2018-02-05T08:45:31.011Z,3.28
2018-02-05T08:48:00.113Z,3.27
2018-02-05T08:50:29.221Z,3.33
2018-02-05T08:52:58.363Z,3.33
2018-02-05T08:55:27.462Z,3.40
2018-02-05T08:57:56.561Z,3.38
2018-02-05T09:00:25.694Z,3.37
2018-02-05T09:02:54.792Z,3.41
2018-02-05T09:05:23.899Z,3.34
2018-02-05T09:07:53.010Z,3.33
2018-02-05T09:10:22.137Z,3.35
2018-02-05T09:12:51.327Z,3.25
2018-02-05T09:15:20.411Z,3.24
2018-02-05T09:17:50.273Z,3.29
2018-02-05T09:20:19.371Z,3.37
2018-02-05T09:22:48.485Z,3.41
2018-02-05T09:25:17.627Z,3.43
2018-02-05T09:27:46.686Z,3.50
2018-02-05T09:30:15.764Z,3.50
2018-02-05T09:32:44.877Z,3.54
2018-02-05T09:35:14.745Z,3.50
2018-02-05T09:37:44.425Z,3.56
2018-02-05T09:40:13.553Z,3.60
2018-02-05T09:42:42.641Z,3.72
2018-02-05T09:45:11.764Z,3.75
2018-02-05T09:47:40.846Z,3.84
2018-02-05T09:50:09.951Z,3.91
2018-02-05T09:52:39.053Z,3.93
2018-02-05T09:55:08.139Z,3.92
2018-02-05T09:57:37.276Z,3.90
2018-02-05T10:00:06.371Z,3.94
2018-02-05T10:02:35.473Z,3.98
2018-02-05T10:05:05.355Z,4.01
2018-02-05T10:07:34.465Z,4.03
2018-02-05T10:10:04.339Z,3.97
2018-02-05T10:12:33.457Z,4.04
2018-02-05T10:15:03.274Z,4.08
2018-02-05T10:17:32.382Z,4.08
2018-02-05T10:20:01.489Z,4.17
2018-02-05T10:22:30.629Z,4.24
2018-02-05T10:24:59.698Z,4.26
2018-02-05T10:27:29.666Z,4.23
2018-02-05T10:29:58.780Z,4.21
2018-02-05T10:32:27.899Z,4.21
2018-02-05T10:34:57.010Z,4.24
2018-02-05T10:37:26.901Z,4.32
2018-02-05T10:39:56.025Z,4.32
2018-02-05T10:42:25.878Z,4.28
2018-02-05T10:44:54.962Z,4.30
2018-02-05T10:47:24.953Z,4.29
2018-02-05T10:49:54.052Z,4.32
2018-02-05T10:52:23.171Z,4.41
2018-02-05T10:54:53.039Z,4.44
2018-02-05T10:57:22.155Z,4.40
2018-02-05T10:59:51.258Z,4.39
2018-02-05T11:02:20.355Z,4.38
2018-02-05T11:04:49.473Z,4.40
2018-02-05T11:07:18.561Z,4.42
2018-02-05T11:09:47.678Z,4.48
2018-02-05T11:12:17.603Z,4.56
2018-02-05T11:14:46.739Z,4.67
2018-02-05T11:17:16.598Z,4.66
2018-02-05T11:19:45.726Z,4.66
2018-02-05T11:22:15.207Z,4.55
2018-02-05T11:24:44.307Z,4.65
2018-02-05T11:27:14.964Z,4.74
2018-02-05T11:29:45.218Z,4.77
2018-02-05T11:32:15.801Z,4.81
2018-02-05T11:34:44.899Z,4.87
2018-02-05T11:37:14.022Z,4.96
2018-02-05T11:39:43.869Z,4.98
2018-02-05T11:42:12.979Z,4.97
2018-02-05T11:44:42.114Z,4.98
2018-02-05T11:47:12.723Z,4.99
2018-02-05T11:49:42.183Z,5.01
2018-02-05T11:52:11.308Z,4.99
2018-02-05T11:54:41.179Z,5.03
2018-02-05T11:57:11.074Z,5.11
2018-02-05T11:59:40.195Z,5.07
2018-02-05T12:02:09.302Z,5.01
2018-02-05T12:04:38.394Z,5.06
2018-02-05T12:07:07.505Z,5.06
2018-02-05T12:09:36.607Z,5.16
2018-02-05T12:12:05.760Z,5.12
2018-02-05T12:14:35.605Z,5.10
2018-02-05T12:17:04.753Z,5.12
2018-02-05T12:19:33.825Z,5.07
2018-02-05T12:22:04.566Z,5.10
2018-02-05T12:24:33.691Z,5.12
2018-02-05T12:27:03.575Z,5.28
2018-02-05T12:29:32.661Z,5.36
2018-02-05T12:32:01.771Z,5.41
2018-02-05T12:34:30.892Z,5.45
2018-02-05T12:37:01.554Z,5.37
2018-02-05T12:39:30.666Z,5.47
2018-02-05T12:42:00.662Z,5.53
2018-02-05T12:44:30.507Z,5.55
2018-02-05T12:47:00.278Z,5.53
2018-02-05T12:49:30.166Z,5.63
2018-02-05T12:51:59.278Z,5.62
2018-02-05T12:54:28.396Z,5.65
2018-02-05T12:56:58.293Z,5.68
2018-02-05T12:59:27.370Z,5.70
2018-02-05T13:01:57.325Z,5.75
2018-02-05T13:07:34.153Z,5.76
2018-02-05T13:10:03.281Z,5.64
2018-02-05T13:12:33.334Z,5.70
2018-02-05T13:15:03.200Z,5.67
2018-02-05T13:17:32.313Z,5.63
2018-02-05T13:20:01.431Z,5.60
2018-02-05T13:22:30.529Z,5.67
2018-02-05T13:25:00.389Z,5.60
2018-02-05T13:27:29.572Z,5.65
2018-02-05T13:29:58.667Z,5.71
2018-02-05T13:32:27.779Z,5.77
2018-02-05T13:34:56.919Z,5.94
2018-02-05T13:37:26.023Z,5.97
2018-02-05T13:39:56.680Z,5.98
2018-02-05T13:42:25.836Z,6.01
2018-02-05T13:44:54.951Z,5.99
2018-02-05T13:47:24.811Z,5.95
2018-02-05T13:49:53.961Z,5.90
2018-02-05T13:52:24.063Z,5.90
2018-02-05T13:54:58.760Z,5.93
2018-02-05T13:57:31.479Z,5.87
2018-02-05T14:00:00.584Z,5.86
2018-02-05T14:02:30.468Z,5.98
2018-02-05T14:04:59.607Z,6.09
2018-02-05T14:07:29.487Z,6.15
2018-02-05T14:09:58.652Z,6.22
2018-02-05T14:12:28.783Z,6.17
2018-02-05T14:14:57.914Z,6.14
2018-02-05T14:17:27.973Z,6.19
2018-02-05T14:19:57.091Z,6.22
2018-02-05T14:22:27.026Z,6.31
2018-02-05T14:24:56.124Z,6.36
2018-02-05T14:27:25.265Z,6.51
2018-02-05T14:29:54.377Z,6.71
2018-02-05T14:32:23.486Z,6.86
2018-02-05T14:34:53.345Z,6.70
2018-02-05T14:37:25.232Z,6.86
2018-02-05T14:39:54.333Z,6.86
2018-02-05T14:42:23.550Z,6.94
2018-02-05T14:44:52.679Z,6.92
2018-02-05T14:47:21.815Z,7.16
2018-02-05T14:49:51.679Z,7.21
2018-02-05T14:52:21.574Z,7.20
2018-02-05T14:54:50.660Z,7.31
2018-02-05T14:57:19.777Z,7.59
2018-02-05T14:59:48.904Z,7.73
2018-02-05T15:02:18.006Z,8.63
2018-02-05T15:04:47.857Z,9.77
2018-02-05T15:07:17.814Z,9.61
2018-02-05T15:09:46.938Z,8.95
2018-02-05T15:12:16.795Z,8.31
2018-02-05T15:14:45.938Z,8.18
2018-02-05T15:17:15.049Z,7.51
2018-02-05T15:19:44.952Z,7.28
2018-02-05T15:22:14.817Z,7.28
2018-02-05T15:24:43.935Z,7.18
2018-02-05T15:27:13.030Z,6.86
2018-02-05T15:29:42.147Z,6.72
2018-02-05T15:32:12.268Z,6.67
2018-02-05T15:34:42.411Z,6.45
2018-02-05T15:37:13.344Z,6.36
2018-02-05T15:39:43.256Z,6.22
2018-02-05T15:42:13.405Z,5.99
2018-02-05T15:44:43.456Z,6.00
2018-02-05T15:47:12.553Z,5.69
2018-02-05T15:49:41.682Z,5.68
2018-02-05T15:52:10.782Z,5.65
2018-02-05T15:54:40.677Z,5.62
2018-02-05T15:57:09.774Z,5.58
2018-02-05T15:59:38.866Z,5.46
2018-02-05T16:02:07.987Z,5.38
2018-02-05T16:04:37.879Z,5.30
2018-02-05T16:07:07.013Z,5.25
2018-02-05T16:09:36.156Z,5.26
2018-02-05T16:12:05.240Z,5.27
2018-02-05T16:14:34.351Z,5.17
2018-02-05T16:17:03.531Z,5.20
2018-02-05T16:19:32.662Z,5.12
2018-02-05T16:22:01.790Z,5.08
2018-02-05T16:24:30.907Z,4.97
2018-02-05T16:27:00.040Z,4.94
2018-02-05T16:29:29.152Z,4.86
2018-02-05T16:31:59.076Z,4.79
2018-02-05T16:34:28.265Z,4.73
2018-02-05T16:36:57.387Z,4.71
2018-02-05T16:39:26.506Z,4.66
2018-02-05T16:41:55.646Z,4.56
2018-02-05T16:44:24.745Z,4.57
2018-02-05T16:46:53.887Z,4.48
2018-02-05T16:49:22.981Z,4.50
2018-02-05T16:51:52.096Z,4.46
2018-02-05T16:54:21.202Z,4.39
2018-02-05T16:56:50.338Z,4.33
2018-02-05T16:59:20.209Z,4.29
2018-02-05T17:01:49.332Z,4.20
2018-02-05T17:04:18.475Z,4.13
2018-02-05T17:06:47.591Z,4.14
2018-02-05T17:09:16.728Z,4.09
2018-02-05T17:11:45.835Z,4.04
2018-02-05T17:14:15.732Z,4.00
2018-02-05T17:16:45.710Z,4.01
2018-02-05T17:19:15.609Z,4.07
2018-02-05T17:21:45.207Z,4.09
2018-02-05T17:24:15.957Z,4.08
2018-02-05T17:26:45.050Z,4.08
2018-02-05T17:29:14.179Z,4.04
2018-02-05T17:31:43.309Z,3.98
2018-02-05T17:34:13.180Z,4.00
2018-02-05T17:36:43.106Z,3.95
2018-02-05T17:39:12.234Z,3.84
2018-02-05T17:41:41.334Z,3.80
2018-02-05T17:44:10.445Z,3.82
2018-02-05T17:46:39.947Z,3.82
2018-02-05T17:49:09.832Z,3.75
2018-02-05T17:51:38.949Z,3.73
2018-02-05T17:54:11.103Z,3.70
2018-02-05T17:56:40.226Z,3.66
2018-02-05T17:59:10.190Z,3.62
2018-02-05T18:01:40.930Z,3.61
2018-02-05T18:04:10.500Z,3.59
2018-02-05T18:06:39.620Z,3.55
2018-02-05T18:09:08.732Z,3.56
2018-02-05T18:11:37.847Z,3.54
2018-02-05T18:14:06.944Z,3.46
2018-02-05T18:16:36.838Z,3.54
2018-02-05T18:19:05.939Z,3.55
2018-02-05T18:21:35.129Z,3.52
2018-02-05T18:24:04.267Z,3.52
2018-02-05T18:26:34.139Z,3.48
2018-02-05T18:29:03.270Z,3.50
2018-02-05T18:31:33.405Z,3.50
2018-02-05T18:34:02.573Z,3.42
2018-02-05T18:36:31.709Z,3.41
2018-02-05T18:39:00.800Z,3.44
2018-02-05T18:41:29.967Z,3.45
2018-02-05T18:43:59.088Z,3.40
2018-02-05T18:46:29.866Z,3.46
2018-02-05T18:48:59.002Z,3.46
2018-02-05T18:51:30.339Z,3.40
2018-02-05T18:54:03.957Z,3.37
2018-02-05T18:56:44.860Z,3.34
2018-02-05T18:59:14.015Z,3.31
2018-02-05T19:01:43.139Z,3.27
2018-02-05T19:04:13.036Z,3.31
2018-02-05T19:06:43.869Z,3.31
2018-02-05T19:09:13.759Z,3.28
2018-02-05T19:11:42.908Z,3.27
2018-02-05T19:14:12.846Z,3.16
2018-02-05T19:16:41.990Z,3.23
2018-02-05T19:19:11.122Z,3.23
2018-02-05T19:21:40.240Z,3.27
2018-02-05T19:24:09.354Z,3.25
2018-02-05T19:26:38.472Z,3.30
2018-02-05T19:29:07.613Z,3.33
2018-02-05T19:31:37.320Z,3.30
2018-02-05T19:34:06.424Z,3.23
2018-02-05T19:36:35.639Z,3.19
2018-02-05T19:39:04.774Z,3.27
2018-02-05T19:41:35.449Z,3.22
2018-02-05T19:44:05.216Z,3.25
2018-02-05T19:46:35.725Z,3.21
2018-02-05T19:49:04.847Z,3.16
2018-02-05T19:51:34.774Z,3.20
2018-02-05T19:54:04.668Z,3.13
2018-02-05T19:56:33.807Z,3.13
2018-02-05T19:59:02.926Z,3.14
2018-02-05T20:01:32.096Z,3.16
2018-02-05T20:04:01.180Z,3.05
2018-02-05T20:06:30.309Z,3.05
2018-02-05T20:08:59.409Z,2.99
2018-02-05T20:11:28.542Z,3.07
2018-02-05T20:13:57.698Z,3.17
2018-02-05T20:16:26.847Z,3.19
2018-02-05T20:18:56.008Z,3.17
2018-02-05T20:21:25.138Z,3.09
2018-02-05T20:23:55.075Z,3.16
2018-02-05T20:26:24.969Z,3.21
2018-02-05T20:28:54.092Z,3.19
2018-02-05T20:31:23.192Z,3.09
2018-02-05T20:33:52.328Z,3.09
2018-02-05T20:36:21.466Z,2.98
2018-02-05T20:38:51.352Z,3.06
2018-02-05T20:41:20.559Z,3.16
2018-02-05T20:43:49.712Z,3.25
2018-02-05T20:46:18.837Z,3.14
2018-02-05T20:48:47.958Z,3.11
2018-02-05T20:51:18.586Z,3.20
2018-02-05T20:53:47.711Z,3.22
2018-02-05T20:56:17.565Z,3.24
2018-02-05T20:58:46.698Z,3.21
2018-02-05T21:01:16.579Z,3.21
2018-02-05T21:03:45.703Z,3.23
2018-02-05T21:06:15.579Z,3.19
2018-02-05T21:08:44.712Z,3.23
2018-02-05T21:11:14.629Z,3.09
2018-02-05T21:13:43.759Z,3.15
2018-02-05T21:16:13.642Z,3.11
2018-02-05T21:18:43.541Z,3.07
2018-02-05T21:21:12.665Z,3.13
2018-02-05T21:23:42.551Z,3.21
2018-02-05T21:26:11.687Z,3.16
2018-02-05T21:28:40.814Z,2.97
2018-02-05T21:31:10.698Z,2.98
2018-02-05T21:33:40.594Z,3.11
2018-02-05T21:36:10.488Z,3.13
2018-02-05T21:38:39.590Z,3.18
2018-02-05T21:41:08.758Z,3.23
2018-02-05T21:43:38.014Z,3.21
2018-02-05T21:46:07.919Z,3.22
2018-02-05T21:48:37.017Z,3.15
2018-02-05T21:51:06.927Z,3.04
2018-02-05T21:53:36.819Z,3.14
2018-02-05T21:56:05.917Z,3.16
2018-02-05T21:58:35.080Z,3.23
2018-02-05T22:01:04.208Z,3.20
2018-02-05T22:03:34.672Z,3.13
2018-02-05T22:06:03.803Z,3.19
2018-02-05T22:08:32.930Z,3.22
2018-02-05T22:11:02.867Z,3.20
2018-02-05T22:13:32.734Z,3.18
2018-02-05T22:16:02.690Z,3.10
2018-02-05T22:18:31.819Z,3.14
2018-02-05T22:21:00.911Z,3.15
2018-02-05T22:23:30.040Z,3.03
2018-02-05T22:25:59.906Z,3.09
2018-02-05T22:28:29.779Z,3.06
2018-02-05T22:30:58.890Z,3.05
2018-02-05T22:33:28.017Z,3.07
2018-02-05T22:35:57.924Z,3.06
2018-02-05T22:38:27.794Z,3.04
2018-02-05T22:40:56.935Z,2.98
2018-02-05T22:43:26.790Z,2.92
2018-02-05T22:45:55.933Z,2.98
2018-02-05T22:48:25.033Z,2.97
2018-02-05T22:50:54.926Z,2.93
2018-02-05T22:53:24.033Z,2.89
2018-02-05T22:55:53.158Z,2.84
2018-02-05T22:58:22.259Z,3.01
2018-02-05T23:00:51.365Z,3.02
2018-02-05T23:03:20.475Z,2.90
2018-02-05T23:05:49.609Z,2.97
2018-02-05T23:08:18.724Z,3.04
2018-02-05T23:10:48.584Z,2.92
2018-02-05T23:13:17.701Z,2.87
2018-02-05T23:15:46.809Z,2.91
2018-02-05T23:18:15.944Z,2.93
2018-02-05T23:20:45.797Z,2.99
2018-02-05T23:23:14.909Z,3.02
2018-02-05T23:25:44.033Z,3.00
2018-02-05T23:28:13.126Z,2.95
2018-02-05T23:30:43.006Z,2.99
2018-02-05T23:33:12.137Z,2.94
2018-02-05T23:35:42.019Z,2.89
2018-02-05T23:38:11.118Z,2.89
2018-02-05T23:40:40.227Z,2.87
2018-02-05T23:43:09.328Z,2.85
2018-02-05T23:45:38.445Z,2.88
2018-02-05T23:48:09.100Z,2.94
2018-02-05T23:50:39.941Z,2.92
2018-02-05T23:53:09.829Z,2.96
2018-02-05T23:55:39.718Z,2.92
2018-02-05T23:58:08.857Z,2.84
